createdAt,value
2022-08-20T00:01:17.013Z,162644.28
2022-08-20T00:03:49.999Z,162625.44
2022-08-20T00:06:23.567Z,162612.00
2022-08-20T00:08:51.303Z,162586.41
2022-08-20T00:11:22.101Z,162587.75
2022-08-20T00:13:54.210Z,162574.31
2022-08-20T00:16:23.794Z,162574.31
2022-08-20T00:18:51.578Z,162558.19
2022-08-20T00:21:21.275Z,162554.13
2022-08-20T00:23:52.879Z,162582.38
2022-08-20T00:26:20.669Z,162536.66
2022-08-20T00:28:48.113Z,162532.59
2022-08-20T00:31:20.603Z,162525.88
2022-08-20T00:33:48.589Z,162531.28
2022-08-20T00:36:17.827Z,162536.66
2022-08-20T00:38:47.091Z,162496.31
2022-08-20T00:41:19.029Z,162468.06
2022-08-20T00:43:53.281Z,162441.16
2022-08-20T00:46:28.825Z,162461.34
2022-08-20T00:49:02.501Z,162425.06
2022-08-20T00:51:30.056Z,162415.66
2022-08-20T00:54:04.951Z,162402.22
2022-08-20T00:56:34.102Z,162449.22
2022-08-20T00:59:02.592Z,162447.91
2022-08-20T01:01:29.930Z,162437.16
2022-08-20T01:03:58.232Z,162427.72
2022-08-20T01:06:25.369Z,162431.78
2022-08-20T01:08:52.777Z,162446.56
2022-08-20T01:11:23.169Z,162439.84
2022-08-20T01:13:51.334Z,162450.56
2022-08-20T01:16:24.862Z,162455.97
2022-08-20T01:18:57.724Z,162477.47
2022-08-20T01:21:28.233Z,162481.53
2022-08-20T01:24:21.130Z,162482.84
2022-08-20T01:26:49.460Z,162474.78
2022-08-20T01:29:20.996Z,162464.00
2022-08-20T01:31:48.587Z,162457.28
2022-08-20T01:34:19.810Z,162464.00
2022-08-20T01:36:52.963Z,162473.47
2022-08-20T01:39:38.677Z,162453.28
2022-08-20T01:42:15.475Z,162426.38
2022-08-20T01:44:44.641Z,162395.47
2022-08-20T01:47:22.400Z,162399.47
2022-08-20T01:49:57.249Z,162396.81
2022-08-20T01:52:48.942Z,162380.66
2022-08-20T01:55:16.274Z,162352.41
2022-08-20T01:57:43.961Z,162333.59
2022-08-20T02:00:20.013Z,162322.81
2022-08-20T02:02:49.444Z,162305.34
2022-08-20T02:05:17.666Z,162282.53
2022-08-20T02:07:44.986Z,162265.03
2022-08-20T02:10:14.909Z,162251.56
2022-08-20T02:12:42.237Z,162234.13
2022-08-20T02:15:11.097Z,162219.34
2022-08-20T02:17:39.590Z,162197.84
2022-08-20T02:20:11.644Z,162176.31
2022-08-20T02:22:52.019Z,162177.69
2022-08-20T02:25:23.197Z,162192.47
2022-08-20T02:27:52.529Z,162173.59
2022-08-20T02:30:27.814Z,162158.81
2022-08-20T02:32:57.393Z,162149.41
2022-08-20T02:35:25.182Z,162131.97
2022-08-20T02:37:53.055Z,162118.53
2022-08-20T02:40:27.274Z,162098.38
2022-08-20T02:43:02.518Z,162084.94
2022-08-20T02:45:37.458Z,162098.38
2022-08-20T02:48:05.437Z,162090.31
2022-08-20T02:50:33.324Z,162074.16
2022-08-20T02:53:00.599Z,162055.38
2022-08-20T02:55:28.488Z,162041.94
2022-08-20T02:57:58.928Z,162051.34
2022-08-20T03:00:28.111Z,162068.81
2022-08-20T03:02:55.522Z,162041.94
2022-08-20T03:05:22.965Z,162039.28
2022-08-20T03:07:56.501Z,162048.66
2022-08-20T03:10:26.841Z,162033.91
2022-08-20T03:12:54.657Z,162023.13
2022-08-20T03:15:21.998Z,162017.75
2022-08-20T03:17:49.548Z,162023.13
2022-08-20T03:20:16.842Z,162047.34
2022-08-20T03:22:44.338Z,162058.06
2022-08-20T03:25:12.650Z,162064.78
2022-08-20T03:27:39.848Z,162074.16
2022-08-20T03:30:10.142Z,162076.88
2022-08-20T03:32:37.838Z,162068.81
2022-08-20T03:35:08.946Z,162071.50
2022-08-20T03:37:36.414Z,162089.00
2022-08-20T03:40:12.521Z,162087.59
2022-08-20T03:42:40.202Z,162090.31
2022-08-20T03:45:09.126Z,162102.38
2022-08-20T03:47:36.561Z,162099.72
2022-08-20T03:50:05.238Z,162098.38
2022-08-20T03:52:32.686Z,162098.38
2022-08-20T03:55:00.001Z,162099.72
2022-08-20T03:57:28.502Z,162107.75
2022-08-20T03:59:58.369Z,162134.66
2022-08-20T04:02:27.114Z,162161.53
2022-08-20T04:04:55.205Z,162168.25
2022-08-20T04:07:25.999Z,162150.75
2022-08-20T04:09:57.586Z,162138.69
2022-08-20T04:12:25.427Z,162131.97
2022-08-20T04:14:55.026Z,162137.31
2022-08-20T04:17:22.123Z,162141.34
2022-08-20T04:19:50.078Z,162152.09
2022-08-20T04:22:17.284Z,162183.06
2022-08-20T04:24:44.539Z,162205.91
2022-08-20T04:27:12.179Z,162205.91
2022-08-20T04:29:43.117Z,162208.56
2022-08-20T04:35:14.678Z,162227.41
2022-08-20T04:37:43.082Z,162223.34
2022-08-20T04:40:35.153Z,162236.78
2022-08-20T04:43:05.056Z,162251.56
2022-08-20T04:45:33.243Z,162267.75
2022-08-20T04:48:05.654Z,162278.47
2022-08-20T04:50:35.898Z,162291.91
2022-08-20T04:53:05.442Z,162291.91
2022-08-20T04:55:33.977Z,162324.19
2022-08-20T04:58:05.989Z,162341.63
2022-08-20T05:00:33.980Z,162321.47
2022-08-20T05:03:01.530Z,162285.19
2022-08-20T05:05:30.802Z,162250.25
2022-08-20T05:07:58.379Z,162242.19
2022-08-20T05:10:26.814Z,162246.22
2022-08-20T05:12:56.558Z,162259.69
2022-08-20T05:15:26.146Z,162222.00
2022-08-20T05:18:00.714Z,162213.97
2022-08-20T05:20:31.295Z,162208.56
2022-08-20T05:22:59.651Z,162204.56
2022-08-20T05:25:30.343Z,162201.84
2022-08-20T05:28:12.400Z,162219.34
2022-08-20T05:30:43.327Z,162223.34
2022-08-20T05:33:13.989Z,162263.69
2022-08-20T05:35:41.438Z,162232.78
2022-08-20T05:38:11.802Z,162262.34
2022-08-20T05:40:40.673Z,162298.63
2022-08-20T05:43:08.887Z,162309.41
2022-08-20T05:45:38.284Z,162320.13
2022-08-20T05:48:11.689Z,162320.13
2022-08-20T05:50:39.863Z,162334.91
2022-08-20T05:53:07.441Z,162367.19
2022-08-20T05:55:37.374Z,162379.25
2022-08-20T05:58:07.775Z,162407.53
2022-08-20T06:00:36.422Z,162464.00
2022-08-20T06:03:22.444Z,162482.84
2022-08-20T06:05:50.993Z,162482.84
2022-08-20T06:08:18.318Z,162466.72
2022-08-20T06:10:46.059Z,162458.69
2022-08-20T06:13:14.149Z,162469.41
2022-08-20T06:15:41.492Z,162465.41
2022-08-20T06:18:16.662Z,162447.91
2022-08-20T06:20:56.527Z,162460.00
2022-08-20T06:23:25.345Z,162466.72
2022-08-20T06:25:52.992Z,162473.47
2022-08-20T06:28:20.820Z,162466.72
2022-08-20T06:30:48.316Z,162478.81
2022-08-20T06:33:15.724Z,162482.84
2022-08-20T06:35:44.680Z,162489.59
2022-08-20T06:38:12.980Z,162500.38
2022-08-20T06:40:40.473Z,162523.22
2022-08-20T06:43:09.863Z,162554.13
2022-08-20T06:45:38.939Z,162579.69
2022-08-20T06:48:11.324Z,162585.03
2022-08-20T06:50:47.287Z,162617.38
2022-08-20T06:53:18.408Z,162632.19
2022-08-20T06:55:48.812Z,162614.72
2022-08-20T06:58:35.665Z,162632.19
2022-08-20T07:01:08.667Z,162621.44
2022-08-20T07:03:42.209Z,162625.44
2022-08-20T07:06:22.150Z,162621.44
2022-08-20T07:08:49.380Z,162634.84
2022-08-20T07:11:16.620Z,162661.75
2022-08-20T07:13:44.029Z,162664.47
2022-08-20T07:16:11.162Z,162706.13
2022-08-20T07:18:38.542Z,162737.09
2022-08-20T07:21:06.413Z,162725.00
2022-08-20T07:23:33.814Z,162737.09
2022-08-20T07:26:01.643Z,162719.59
2022-08-20T07:28:29.326Z,162723.66
2022-08-20T07:31:15.954Z,162738.44
2022-08-20T07:33:44.775Z,162768.03
2022-08-20T07:36:12.853Z,162812.47
2022-08-20T07:38:40.094Z,162886.50
2022-08-20T07:41:10.241Z,162941.69
2022-08-20T07:43:39.483Z,163013.09
2022-08-20T07:46:08.517Z,163132.91
2022-08-20T07:48:40.171Z,163223.13
2022-08-20T07:51:09.342Z,163271.63
2022-08-20T07:53:39.240Z,163313.38
2022-08-20T07:56:12.822Z,163349.75
2022-08-20T07:58:50.699Z,163303.97
2022-08-20T08:01:26.072Z,163325.53
2022-08-20T08:03:53.833Z,163414.44
2022-08-20T08:06:30.392Z,163454.88
2022-08-20T08:09:03.647Z,163537.09
2022-08-20T08:11:32.396Z,163480.44
2022-08-20T08:14:00.352Z,163411.78
2022-08-20T08:16:28.621Z,163324.13
2022-08-20T08:19:01.283Z,163321.47
2022-08-20T08:21:30.853Z,163348.41
2022-08-20T08:23:58.256Z,163325.53
2022-08-20T08:26:26.332Z,163270.28
2022-08-20T08:28:53.622Z,163293.16
2022-08-20T08:31:20.944Z,163357.88
2022-08-20T08:33:48.103Z,163332.25
2022-08-20T08:36:16.678Z,163333.59
2022-08-20T08:38:45.488Z,163434.66
2022-08-20T08:41:26.314Z,163434.66
2022-08-20T08:43:55.635Z,163365.94
2022-08-20T08:46:27.482Z,163372.69
2022-08-20T08:48:58.090Z,163471.03
2022-08-20T08:51:31.010Z,163524.94
2022-08-20T08:54:02.200Z,163487.19
2022-08-20T08:56:34.460Z,163465.63
2022-08-20T08:59:08.877Z,163487.19
2022-08-20T09:01:54.818Z,163526.28
2022-08-20T09:04:33.390Z,163546.56
2022-08-20T09:07:02.875Z,163554.63
2022-08-20T09:09:37.081Z,163580.22
2022-08-20T09:12:20.249Z,163599.09
2022-08-20T09:14:49.263Z,163632.78
2022-08-20T09:17:18.943Z,163654.34
2022-08-20T09:19:46.300Z,163705.63
2022-08-20T09:22:16.604Z,163739.34
2022-08-20T09:24:44.414Z,163725.84
2022-08-20T09:27:12.113Z,163688.06
2022-08-20T09:29:39.796Z,163727.19
2022-08-20T09:32:13.751Z,163802.69
2022-08-20T09:34:47.491Z,163824.25
2022-08-20T09:37:15.573Z,163847.16
2022-08-20T09:39:43.502Z,163840.44
2022-08-20T09:42:13.542Z,163839.09
2022-08-20T09:44:41.321Z,163826.94
2022-08-20T09:47:10.443Z,163809.44
2022-08-20T09:49:38.085Z,163816.19
2022-08-20T09:52:08.598Z,163822.94
2022-08-20T09:54:37.884Z,163814.78
2022-08-20T09:57:07.769Z,163845.84
2022-08-20T09:59:36.090Z,163949.69
2022-08-20T10:02:04.089Z,163937.56
2022-08-20T10:04:31.545Z,163998.25
2022-08-20T10:06:58.761Z,163984.75
2022-08-20T10:09:26.341Z,163984.75
2022-08-20T10:11:53.641Z,164064.34
2022-08-20T10:14:20.929Z,164092.69
2022-08-20T10:16:56.012Z,164154.75
2022-08-20T10:19:27.729Z,164165.56
2022-08-20T10:21:55.363Z,164183.09
2022-08-20T10:24:22.942Z,164125.09
2022-08-20T10:26:50.517Z,164111.59
2022-08-20T10:29:17.974Z,164127.75
2022-08-20T10:31:45.299Z,164115.66
2022-08-20T10:34:12.375Z,164145.31
2022-08-20T10:36:42.307Z,164137.25
2022-08-20T10:39:09.734Z,164134.50
2022-08-20T10:41:39.071Z,164127.75
2022-08-20T10:44:06.685Z,164139.91
2022-08-20T10:46:33.891Z,164104.84
2022-08-20T10:49:01.074Z,164129.16
2022-08-20T10:51:32.585Z,164193.91
2022-08-20T10:54:00.610Z,164269.47
2022-08-20T10:56:27.952Z,164358.63
2022-08-20T10:58:55.302Z,164377.47
2022-08-20T11:01:31.274Z,164388.31
2022-08-20T11:04:00.337Z,164435.56
2022-08-20T11:06:27.665Z,164457.16
2022-08-20T11:08:56.819Z,164416.66
2022-08-20T11:11:24.636Z,164401.81
2022-08-20T11:13:51.994Z,164450.41
2022-08-20T11:16:19.423Z,164478.75
2022-08-20T11:18:47.813Z,164492.25
2022-08-20T11:21:15.272Z,164458.50
2022-08-20T11:23:42.691Z,164473.34
2022-08-20T11:26:10.746Z,164511.16
2022-08-20T11:28:38.029Z,164573.28
2022-08-20T11:31:05.257Z,164592.19
2022-08-20T11:33:32.757Z,164592.19
2022-08-20T11:35:59.901Z,164604.31
2022-08-20T11:38:27.209Z,164634.00
2022-08-20T11:40:54.754Z,164585.44
2022-08-20T11:43:22.015Z,164535.50
2022-08-20T11:45:53.143Z,164557.09
2022-08-20T11:48:20.962Z,164540.84
2022-08-20T11:50:49.644Z,164547.63
2022-08-20T11:53:16.980Z,164503.03
2022-08-20T11:55:44.905Z,164530.09
2022-08-20T11:58:13.008Z,164526.00
2022-08-20T12:00:40.253Z,164542.25
2022-08-20T12:03:10.112Z,164585.44
2022-08-20T12:05:42.395Z,164605.66
2022-08-20T12:08:10.528Z,164611.06
2022-08-20T12:10:54.422Z,164655.63
2022-08-20T12:13:30.427Z,164662.41
2022-08-20T12:15:59.312Z,164671.91
2022-08-20T12:18:27.243Z,164644.84
2022-08-20T12:20:54.805Z,164669.16
2022-08-20T12:23:22.041Z,164681.34
2022-08-20T12:25:49.823Z,164639.44
2022-08-20T12:28:17.060Z,164628.66
2022-08-20T12:30:50.476Z,164625.91
2022-08-20T12:33:17.939Z,164563.84
2022-08-20T12:35:45.269Z,164608.38
2022-08-20T12:38:12.699Z,164619.16
2022-08-20T12:40:40.303Z,164644.84
2022-08-20T12:43:08.456Z,164638.09
2022-08-20T12:45:36.470Z,164635.41
2022-08-20T12:48:09.641Z,164685.41
2022-08-20T12:50:39.140Z,164681.34
2022-08-20T12:53:06.474Z,164643.50
2022-08-20T12:55:34.630Z,164635.41
2022-08-20T12:58:04.286Z,164690.78
2022-08-20T13:00:37.015Z,164657.00
2022-08-20T13:03:06.138Z,164692.16
2022-08-20T13:05:34.632Z,164690.78
2022-08-20T13:08:02.403Z,164715.13
2022-08-20T13:10:32.344Z,164704.28
2022-08-20T13:13:02.775Z,164711.03
2022-08-20T13:15:32.164Z,164686.75
2022-08-20T13:18:02.371Z,164667.81
2022-08-20T13:20:31.717Z,164658.34
2022-08-20T13:23:04.539Z,164681.34
2022-08-20T13:25:32.654Z,164671.91
2022-08-20T13:28:02.313Z,164678.66
2022-08-20T13:30:29.739Z,164707.00
2022-08-20T13:32:57.264Z,164682.69
2022-08-20T13:35:24.705Z,164620.56
2022-08-20T13:37:52.203Z,164612.41
2022-08-20T13:40:19.563Z,164601.63
2022-08-20T13:42:47.025Z,164601.63
2022-08-20T13:45:14.742Z,164627.25
2022-08-20T13:47:42.831Z,164589.47
2022-08-20T13:50:17.617Z,164601.63
2022-08-20T13:52:46.033Z,164625.91
2022-08-20T13:55:16.843Z,164609.72
2022-08-20T13:57:45.112Z,164611.06
2022-08-20T14:00:16.958Z,164607.03
2022-08-20T14:02:44.660Z,164594.88
2022-08-20T14:05:12.322Z,164611.06
2022-08-20T14:07:45.685Z,164593.53
2022-08-20T14:10:18.532Z,164580.03
2022-08-20T14:12:48.198Z,164590.81
2022-08-20T14:15:15.974Z,164571.94
2022-08-20T14:17:50.240Z,164517.91
2022-08-20T14:20:20.179Z,164474.69
2022-08-20T14:22:47.568Z,164454.41
2022-08-20T14:25:17.824Z,164440.91
2022-08-20T14:27:45.678Z,164472.00
2022-08-20T14:30:17.800Z,164488.19
2022-08-20T14:32:45.224Z,164484.09
2022-08-20T14:35:13.173Z,164443.66
2022-08-20T14:37:43.254Z,164388.31
2022-08-20T14:40:14.156Z,164382.88
2022-08-20T14:42:43.295Z,164397.72
2022-08-20T14:45:14.410Z,164389.63
2022-08-20T14:47:45.800Z,164405.81
2022-08-20T14:50:22.774Z,164417.97
2022-08-20T14:52:50.374Z,164407.22
2022-08-20T14:55:20.521Z,164405.81
2022-08-20T14:57:48.553Z,164409.91
2022-08-20T15:00:19.519Z,164380.22
2022-08-20T15:02:47.292Z,164361.28
2022-08-20T15:05:15.484Z,164354.53
2022-08-20T15:07:49.618Z,164376.13
2022-08-20T15:10:23.434Z,164336.97
2022-08-20T15:12:51.404Z,164318.06
2022-08-20T15:15:18.941Z,164307.28
2022-08-20T15:17:48.986Z,164272.22
2022-08-20T15:20:19.890Z,164251.97
2022-08-20T15:22:49.203Z,164247.91
2022-08-20T15:25:18.659Z,164226.31
2022-08-20T15:27:46.571Z,164226.31
2022-08-20T15:30:17.337Z,164206.06
2022-08-20T15:32:44.757Z,164193.91
2022-08-20T15:35:13.328Z,164175.00
2022-08-20T15:37:43.119Z,164169.59
2022-08-20T15:40:12.365Z,164162.84
2022-08-20T15:42:44.054Z,164188.50
2022-08-20T15:45:22.035Z,164202.03
2022-08-20T15:47:55.333Z,164191.19
2022-08-20T15:50:25.268Z,164188.50
2022-08-20T15:52:52.922Z,164160.16
2022-08-20T15:55:20.189Z,164142.59
2022-08-20T15:57:59.606Z,164133.16
2022-08-20T16:00:33.002Z,164110.25
2022-08-20T16:03:22.068Z,164076.50
2022-08-20T16:06:13.863Z,164044.16
2022-08-20T16:08:56.809Z,164022.53
2022-08-20T16:11:49.228Z,164007.72
2022-08-20T16:14:25.460Z,163984.75
2022-08-20T16:17:06.694Z,163978.00
2022-08-20T16:20:09.703Z,163975.31
2022-08-20T16:22:43.752Z,163969.91
2022-08-20T16:25:12.110Z,163945.66
2022-08-20T16:28:04.021Z,163929.50
2022-08-20T16:30:44.023Z,163907.88
2022-08-20T16:33:16.720Z,163901.19
2022-08-20T16:35:51.887Z,163882.28
2022-08-20T16:38:38.049Z,163880.94
2022-08-20T16:41:14.123Z,163860.66
2022-08-20T16:43:52.368Z,163829.63
2022-08-20T16:46:27.020Z,163835.03
2022-08-20T16:48:58.291Z,163789.22
2022-08-20T16:51:54.841Z,163787.88
2022-08-20T16:54:30.071Z,163760.91
2022-08-20T16:57:01.362Z,163740.66
2022-08-20T16:59:29.221Z,163713.69
2022-08-20T17:02:06.991Z,163697.50
2022-08-20T17:04:45.158Z,163689.41
2022-08-20T17:07:29.890Z,163666.50
2022-08-20T17:10:22.761Z,163646.28
2022-08-20T17:12:56.149Z,163619.31
2022-08-20T17:15:28.127Z,163603.16
2022-08-20T17:17:55.963Z,163570.78
2022-08-20T17:20:25.752Z,163554.63
2022-08-20T17:23:18.407Z,163538.47
2022-08-20T17:25:59.181Z,163515.47
2022-08-20T17:28:28.377Z,163495.31
2022-08-20T17:30:58.323Z,163489.91
2022-08-20T17:33:30.316Z,163475.09
2022-08-20T17:36:01.167Z,163461.63
2022-08-20T17:38:35.412Z,163442.75
2022-08-20T17:41:12.774Z,163418.50
2022-08-20T17:43:44.497Z,163374.03
2022-08-20T17:46:17.702Z,163367.34
2022-08-20T17:48:47.732Z,163339.00
2022-08-20T17:51:18.487Z,163321.47
2022-08-20T17:54:03.668Z,163303.97
2022-08-20T17:56:34.452Z,163285.09
2022-08-20T18:00:00.924Z,163250.09
2022-08-20T18:02:26.113Z,163205.66
2022-08-20T18:04:54.941Z,163205.66
2022-08-20T18:07:28.629Z,163190.84
2022-08-20T18:10:03.658Z,163169.25
2022-08-20T18:12:54.810Z,163161.19
2022-08-20T18:15:34.030Z,163140.97
2022-08-20T18:18:10.133Z,163132.91
2022-08-20T18:21:01.838Z,163118.03
2022-08-20T18:23:32.871Z,163100.56
2022-08-20T18:26:10.035Z,163100.56
2022-08-20T18:28:45.467Z,163085.75
2022-08-20T18:31:33.782Z,163061.56
2022-08-20T18:34:17.274Z,163042.69
2022-08-20T18:37:07.943Z,163027.88
2022-08-20T18:39:38.548Z,163018.44
2022-08-20T18:42:34.884Z,163007.69
2022-08-20T18:45:02.631Z,163007.69
2022-08-20T18:47:41.358Z,162996.91
2022-08-20T18:50:16.554Z,163002.28
2022-08-20T18:52:48.235Z,162996.91
2022-08-20T18:55:42.681Z,162998.28
2022-08-20T18:58:31.988Z,162994.22
2022-08-20T19:01:00.799Z,162959.16
2022-08-20T19:03:34.008Z,162988.81
2022-08-20T19:06:09.237Z,162988.81
2022-08-20T19:08:46.162Z,162971.31
2022-08-20T19:11:37.555Z,162959.16
2022-08-20T19:14:19.924Z,162956.50
2022-08-20T19:17:00.713Z,162948.44
2022-08-20T19:19:32.671Z,162940.31
2022-08-20T19:22:01.193Z,162932.25
2022-08-20T19:24:30.584Z,162936.31
2022-08-20T19:27:08.147Z,162941.69
2022-08-20T19:29:47.165Z,162924.19
2022-08-20T19:32:33.310Z,162921.50
2022-08-20T19:35:03.480Z,162905.38
2022-08-20T19:37:50.494Z,162894.56
2022-08-20T19:40:26.541Z,162891.91
2022-08-20T19:42:59.413Z,162887.84
2022-08-20T19:45:37.569Z,162881.13
2022-08-20T19:48:13.845Z,162866.31
2022-08-20T19:51:06.761Z,162864.97
2022-08-20T19:53:35.912Z,162854.19
2022-08-20T19:56:10.998Z,162842.13
2022-08-20T19:58:38.683Z,162836.72
2022-08-20T20:01:11.666Z,162825.94
2022-08-20T20:03:39.217Z,162803.06
2022-08-20T20:06:20.616Z,162784.16
2022-08-20T20:09:04.301Z,162770.75
2022-08-20T20:11:44.683Z,162772.09
2022-08-20T20:14:14.006Z,162765.38
2022-08-20T20:16:41.979Z,162766.69
2022-08-20T20:19:27.740Z,162743.84
2022-08-20T20:22:20.870Z,162742.50
2022-08-20T20:24:57.550Z,162741.13
2022-08-20T20:27:26.843Z,162720.97
2022-08-20T20:30:13.740Z,162720.97
2022-08-20T20:32:49.305Z,162706.13
2022-08-20T20:35:31.828Z,162688.69
2022-08-20T20:38:01.394Z,162675.22
2022-08-20T20:40:33.963Z,162669.81
2022-08-20T20:43:06.998Z,162656.38
2022-08-20T20:45:44.729Z,162664.47
2022-08-20T20:48:21.156Z,162663.09
2022-08-20T20:50:49.208Z,162652.34
2022-08-20T20:53:53.083Z,162640.25
2022-08-20T20:56:33.933Z,162630.84
2022-08-20T20:59:06.453Z,162625.44
2022-08-20T21:01:48.306Z,162625.44
2022-08-20T21:04:22.106Z,162616.06
2022-08-20T21:06:52.376Z,162608.00
2022-08-20T21:09:21.280Z,162601.25
2022-08-20T21:11:49.054Z,162609.31
2022-08-20T21:14:17.209Z,162598.53
2022-08-20T21:16:45.092Z,162593.16
2022-08-20T21:19:12.952Z,162585.03
2022-08-20T21:21:41.059Z,162591.75
2022-08-20T21:24:09.232Z,162570.25
2022-08-20T21:26:37.153Z,162556.78
2022-08-20T21:29:06.128Z,162559.50
2022-08-20T21:31:36.661Z,162552.78
2022-08-20T21:34:04.236Z,162551.44
2022-08-20T21:36:31.653Z,162550.13
2022-08-20T21:38:59.231Z,162551.44
2022-08-20T21:41:29.712Z,162544.72
2022-08-20T21:43:59.453Z,162540.66
2022-08-20T21:46:28.774Z,162535.28
2022-08-20T21:48:56.410Z,162527.22
2022-08-20T21:51:23.708Z,162542.00
2022-08-20T21:53:51.996Z,162529.94
2022-08-20T21:56:19.260Z,162523.22
2022-08-20T21:58:47.523Z,162515.16
2022-08-20T22:01:15.377Z,162498.97
2022-08-20T22:03:43.950Z,162481.53
2022-08-20T22:06:17.189Z,162469.41
2022-08-20T22:08:44.486Z,162431.78
2022-08-20T22:11:11.953Z,162433.13
2022-08-20T22:13:39.852Z,162422.38
2022-08-20T22:16:09.192Z,162418.31
2022-08-20T22:18:36.752Z,162407.53
2022-08-20T22:21:07.399Z,162399.47
2022-08-20T22:23:34.650Z,162381.97
2022-08-20T22:26:01.844Z,162380.66
2022-08-20T22:28:29.233Z,162368.53
2022-08-20T22:30:56.543Z,162347.03
2022-08-20T22:33:24.418Z,162348.38
2022-08-20T22:35:54.724Z,162338.97
2022-08-20T22:38:22.484Z,162321.47
2022-08-20T22:40:50.648Z,162304.03
2022-08-20T22:43:18.269Z,162295.97
2022-08-20T22:45:47.297Z,162283.84
2022-08-20T22:48:16.155Z,162278.47
2022-08-20T22:50:44.072Z,162275.78
2022-08-20T22:53:11.859Z,162273.06
2022-08-20T22:55:39.092Z,162298.63
2022-08-20T22:58:07.182Z,162299.97
2022-08-20T23:00:35.817Z,162308.03
2022-08-20T23:03:03.902Z,162293.25
2022-08-20T23:05:33.234Z,162273.06
2022-08-20T23:08:01.133Z,162274.47
2022-08-20T23:10:30.327Z,162270.41
2022-08-20T23:12:58.817Z,162248.91
2022-08-20T23:15:27.811Z,162219.34
2022-08-20T23:18:03.252Z,162227.41
2022-08-20T23:20:30.751Z,162228.75
2022-08-20T23:22:58.316Z,162224.75
2022-08-20T23:25:26.834Z,162204.56
2022-08-20T23:27:56.699Z,162196.53
2022-08-20T23:30:30.939Z,162172.25
2022-08-20T23:32:58.712Z,162166.91
2022-08-20T23:35:33.089Z,162152.09
2022-08-20T23:38:01.047Z,162144.03
2022-08-20T23:40:29.081Z,162133.31
2022-08-20T23:42:57.078Z,162126.59
2022-08-20T23:45:25.542Z,162106.44
2022-08-20T23:47:53.449Z,162109.09
2022-08-20T23:50:25.868Z,162084.94
2022-08-20T23:52:54.568Z,162059.38
2022-08-20T23:55:23.033Z,162041.94
2022-08-20T23:57:51.110Z,162033.91
